Fuerteventura > ESTACION METEOROLÓGICA Pájara

DATOS ACTUALES Online

Ultima actulizacion 1 h 9 minutos

23.5 ºC

Temperatura

68

Humedad (%)

1016.2

Presión (mb)

0

Precipitación (mm)

5 N

Viento (Km/h)

DATOS DIARIOS

Temperatura últimas 24 horas (ºC)

Humedad últimas 24 horas (%)

Presión atmosférica últimas 24 horas (mb)

Precipitaciones últimas 23 horas (mm)

Viento últimas 24 horas (Km/h)

Hora Temperatura (°C) ºC Precipitación (mm) mm Presión (mb) mb Humedad (%) % Viento (Km/h) km/h
15 - 23:00 24.4 0 1017 64 2.6 N
16 - 00:00 23.8 0 1017 67 0 SO
16 - 01:00 23.5 0 1017 70 1.5 SW
16 - 02:00 23.4 0 1017 72 0.5 O
16 - 03:00 23.2 0 1016 72 0.7 O
16 - 04:00 23.4 0 1016 67 1 O
16 - 05:00 23.5 0 1015 70 0.9 SO
16 - 06:00 23.3 0 1015 69 4 N
16 - 07:00 24.2 0 1015 62 4 N
16 - 08:00 23.3 0 1015 68 7.4 N
16 - 09:00 23.9 0 1015 66 7.3 N
16 - 10:00 24.8 0 1015 64 5.9 N
16 - 11:00 26.8 0 1016 54 3.7 N
16 - 12:00 26.5 0 1016 55 4.2 N
16 - 13:00 27.1 0 1016 55 4.2 N
16 - 14:00 27.9 0 1015 54 5.8 N
16 - 15:00 27.5 0 1015 56 6.3 N
16 - 16:00 27.2 0 1015 57 6.1 N
16 - 17:00 26.9 0 1014 56 5.9 N
16 - 18:00 26.2 0 1015 61 5.6 N
16 - 19:00 26.1 0 1015 62 3.9 N
16 - 20:00 24.4 0 1015 66 6.3 N
16 - 21:00 23.8 0 1015 67 7 N
16 - 22:00 23.5 0 1016 68 5 N
16 - 23:00
Apalmet utiliza cookies propias y de terceros para mejorar la usabilidad y la experiencia web. Política de cookies.